ADDS METAR Data INFO
IDs: Format: Raw Decoded Include TAF

Data at: 1039 UTC 19 Oct 2017

KGCK 190954Z AUTO 08004KT 10SM CLR 09/03 A3005 RMK AO2 SLP151 T00940033
KGCK 190854Z AUTO 07006KT 10SM CLR 09/03 A3006 RMK AO2 SLP152 T00940033 56005
KGCK 190754Z AUTO 05005KT 10SM CLR 10/03 A3006 RMK AO2 SLP154 T01000033
KGCK 190654Z AUTO 05005KT 10SM CLR 11/04 A3007 RMK AO2 SLP157 T01060039
KGCK 190554Z AUTO 06005KT 10SM CLR 12/04 A3007 RMK AO2 SLP160 T01170039 10228 20117 403000011 50005
KGCK 190454Z AUTO 06006KT 10SM CLR 13/04 A3008 RMK AO2 SLP165 T01280044
KGCK 190354Z AUTO 03006KT 10SM CLR 13/05 A3008 RMK AO2 SLP170 T01330050
KGCK 190254Z AUTO 15006KT 10SM CLR 16/06 A3006 RMK AO2 SLP166 T01560056 51011
KGCK 190154Z 14006KT 10SM CLR 17/04 A3005 RMK AO2 SLP168 T01720044
KGCK 190054Z 10007KT 10SM CLR 18/03 A3004 RMK AO2 SLP167 T01830033
KGCK 182354Z 07008KT 9SM CLR 23/02 A3002 RMK AO2 SLP154 T02280017 10300 20228 53009
KGCK 182254Z 15006KT 10SM CLR 26/03 A3000 RMK AO2 SLP143 T02560033
KGCK 182154Z 12004KT 10SM CLR 28/03 A3000 RMK AO2 SLP138 T02830033
KGCK 182054Z 00000KT 10SM CLR 30/M03 A2999 RMK AO2 SLP131 T03001033 56011
KGCK 181954Z VRB04KT 10SM CLR 29/M01 A2999 RMK AO2 SLP133 T02941006
KGCK 181854Z 02005KT 10SM CLR 28/02 A3001 RMK AO2 SLP140 T02830022
KGCK 181754Z 32004KT 10SM CLR 26/04 A3003 RMK AO2 SLP147 T02610044 10261 20011 58001
KGCK 181654Z VRB04KT 10SM CLR 22/05 A3003 RMK AO2 SLP150 T02220050
KGCK 181554Z 26005KT 10SM CLR 16/05 A3004 RMK AO2 SLP157 T01610050
KGCK 181454Z 27004KT 10SM CLR 11/06 A3003 RMK AO2 SLP158 T01110056 53020
KGCK 181354Z 22003KT 10SM CLR 06/03 A3001 RMK AO2 SLP157 T00560033
KGCK 181254Z 23005KT 10SM CLR 02/01 A2998 RMK AO2 SLP149 T00170006
KGCK 181154Z AUTO 29004KT 10SM CLR 03/02 A2997 RMK AO2 SLP137 T00330017 10094 20033 53001
KGCK 181054Z AUTO 28005KT 10SM CLR 04/02 A2996 RMK AO2 SLP131 T00440022
KGCK 180954Z AUTO 21004KT 10SM CLR 05/03 A2996 RMK AO2 SLP129 T00500028
KGCK 180854Z AUTO 22004KT 10SM CLR 08/04 A2996 RMK AO2 SLP125 T00830044 58013
KGCK 180754Z AUTO 21003KT 10SM CLR 08/04 A2998 RMK AO2 SLP131 T00780039
KGCK 180654Z AUTO 17004KT 10SM CLR 08/04 A2999 RMK AO2 SLP137 T00780039
KGCK 180554Z AUTO 14008KT 10SM CLR 09/04 A3001 RMK AO2 SLP141 T00890044 10206 20089 402720011 58008
KGCK 180454Z AUTO 16005KT 10SM CLR 10/05 A3002 RMK AO2 SLP146 T01000050
KGCK 180354Z AUTO 15009KT 10SM CLR 13/05 A3002 RMK AO2 SLP152 T01280050
KGCK 180254Z AUTO 13009KT 10SM CLR 14/05 A3003 RMK AO2 SLP158 T01440050 50003
KGCK 180154Z 14009KT 10SM CLR 14/04 A3003 RMK AO2 SLP167 T01440044
KGCK 180054Z 13008KT 10SM CLR 16/04 A3003 RMK AO2 SLP167 T01560039
KGCK 172354Z 15008KT 10SM CLR 21/04 A3002 RMK AO2 SLP158 T02060039 10272 20206 55003
KGCK 172254Z 16008KT 10SM CLR 24/04 A3002 RMK AO2 SLP152 T02440039